<?xml version='1.0' encoding='UTF-8'?>
<gpx xmlns="http://www.topografix.com/GPX/1/1" creator="www.balnam.be" version="1.1" xmlns:xsi="http://www.w3.org/2001/XMLSchema-instance" xsi:schemaLocation="http://www.topografix.com/GPX/1/1 http://www.topografix.com/GPX/1/1/gpx.xsd">
<trk>
<name>xnsfr1</name>
<cmt>v</cmt>
<desc>Forrières Chemin n°1 </desc>
<link href="https://chemins.be/forrieres/chemin/1"/><trkseg>
<trkpt lat="50.134808" lon="5.244913"><time>2026-05-04T16:21:18Z</time></trkpt>
<trkpt lat="50.132764" lon="5.247264"><time>2026-05-04T16:31:18Z</time></trkpt>
<trkpt lat="50.130114" lon="5.249638"><time>2026-05-04T16:41:18Z</time></trkpt>
</trkseg></trk>
<trk>
<name>xnsfr1</name>
<cmt>s</cmt>
<desc>Forrières Chemin n°1 </desc>
<link href="https://chemins.be/forrieres/chemin/1"/><trkseg>
<trkpt lat="50.130114" lon="5.249638"><time>2026-05-04T16:41:18Z</time></trkpt>
<trkpt lat="50.129443" lon="5.251598"><time>2026-05-04T16:51:18Z</time></trkpt>
<trkpt lat="50.129180" lon="5.253090"><time>2026-05-04T17:01:18Z</time></trkpt>
<trkpt lat="50.128258" lon="5.253758"><time>2026-05-04T17:11:18Z</time></trkpt>
</trkseg></trk>
<trk>
<name>xnsfr1</name>
<cmt>v</cmt>
<desc>Forrières Chemin n°1 </desc>
<link href="https://chemins.be/forrieres/chemin/1"/><trkseg>
<trkpt lat="50.128258" lon="5.253758"><time>2026-05-04T17:11:18Z</time></trkpt>
<trkpt lat="50.127785" lon="5.254062"><time>2026-05-04T17:21:18Z</time></trkpt>
<trkpt lat="50.127040" lon="5.256394"><time>2026-05-04T17:31:18Z</time></trkpt>
<trkpt lat="50.127018" lon="5.258213"><time>2026-05-04T17:41:18Z</time></trkpt>
<trkpt lat="50.127251" lon="5.259600"><time>2026-05-04T17:51:18Z</time></trkpt>
<trkpt lat="50.128654" lon="5.262983"><time>2026-05-04T18:01:18Z</time></trkpt>
<trkpt lat="50.129893" lon="5.264377"><time>2026-05-04T18:11:18Z</time></trkpt>
<trkpt lat="50.130663" lon="5.265930"><time>2026-05-04T18:21:18Z</time></trkpt>
<trkpt lat="50.130965" lon="5.266799"><time>2026-05-04T18:31:18Z</time></trkpt>
<trkpt lat="50.131005" lon="5.267256"><time>2026-05-04T18:41:18Z</time></trkpt>
</trkseg></trk>
<trk>
<name>xnsfr1</name>
<cmt>r</cmt>
<desc>Forrières Chemin n°1 </desc>
<link href="https://chemins.be/forrieres/chemin/1"/><trkseg>
<trkpt lat="50.131005" lon="5.267256"><time>2026-05-04T18:41:18Z</time></trkpt>
<trkpt lat="50.130786" lon="5.267920"><time>2026-05-04T18:51:18Z</time></trkpt>
<trkpt lat="50.131086" lon="5.268460"><time>2026-05-04T19:01:18Z</time></trkpt>
<trkpt lat="50.131188" lon="5.272228"><time>2026-05-04T19:11:18Z</time></trkpt>
<trkpt lat="50.131039" lon="5.272666"><time>2026-05-04T19:21:18Z</time></trkpt>
<trkpt lat="50.131072" lon="5.273421"><time>2026-05-04T19:31:18Z</time></trkpt>
<trkpt lat="50.131364" lon="5.275244"><time>2026-05-04T19:41:18Z</time></trkpt>
<trkpt lat="50.131689" lon="5.276374"><time>2026-05-04T19:51:18Z</time></trkpt>
</trkseg></trk>
<trk>
<name>xnsfr1</name>
<cmt>s</cmt>
<desc>Forrières Chemin n°1 </desc>
<link href="https://chemins.be/forrieres/chemin/1"/><trkseg>
<trkpt lat="50.131689" lon="5.276374"><time>2026-05-04T19:51:18Z</time></trkpt>
<trkpt lat="50.132032" lon="5.277048"><time>2026-05-04T20:01:18Z</time></trkpt>
</trkseg></trk>
<trk>
<name>xnsfr1</name>
<cmt>r</cmt>
<desc>Forrières Chemin n°1 </desc>
<link href="https://chemins.be/forrieres/chemin/1"/><trkseg>
<trkpt lat="50.132032" lon="5.277048"><time>2026-05-04T20:01:18Z</time></trkpt>
<trkpt lat="50.132673" lon="5.277927"><time>2026-05-04T20:11:18Z</time></trkpt>
</trkseg></trk>
<trk>
<name>xnsfr1</name>
<cmt>s</cmt>
<desc>Forrières Chemin n°1 </desc>
<link href="https://chemins.be/forrieres/chemin/1"/><trkseg>
<trkpt lat="50.132673" lon="5.277927"><time>2026-05-04T20:11:18Z</time></trkpt>
<trkpt lat="50.133617" lon="5.279060"><time>2026-05-04T20:21:18Z</time></trkpt>
<trkpt lat="50.133732" lon="5.280314"><time>2026-05-04T20:31:18Z</time></trkpt>
</trkseg></trk>
<trk>
<name>xnsfr1</name>
<cmt>r</cmt>
<desc>Forrières Chemin n°1 </desc>
<link href="https://chemins.be/forrieres/chemin/1"/><trkseg>
<trkpt lat="50.133732" lon="5.280314"><time>2026-05-04T20:31:18Z</time></trkpt>
<trkpt lat="50.133785" lon="5.281108"><time>2026-05-04T20:41:18Z</time></trkpt>
<trkpt lat="50.133548" lon="5.283305"><time>2026-05-04T20:51:18Z</time></trkpt>
<trkpt lat="50.133774" lon="5.284709"><time>2026-05-04T21:01:18Z</time></trkpt>
<trkpt lat="50.133516" lon="5.285799"><time>2026-05-04T21:11:18Z</time></trkpt>
<trkpt lat="50.133997" lon="5.287648"><time>2026-05-04T21:21:18Z</time></trkpt>
<trkpt lat="50.133960" lon="5.288065"><time>2026-05-04T21:31:18Z</time></trkpt>
<trkpt lat="50.134076" lon="5.288631"><time>2026-05-04T21:41:18Z</time></trkpt>
<trkpt lat="50.134369" lon="5.290880"><time>2026-05-04T21:51:18Z</time></trkpt>
<trkpt lat="50.134821" lon="5.295672"><time>2026-05-04T22:01:18Z</time></trkpt>
<trkpt lat="50.135338" lon="5.296599"><time>2026-05-04T22:11:18Z</time></trkpt>
</trkseg></trk>
<trk>
<name>xnsfr1</name>
<cmt>v</cmt>
<desc>Forrières Chemin n°1 </desc>
<link href="https://chemins.be/forrieres/chemin/1"/><trkseg>
<trkpt lat="50.135338" lon="5.296599"><time>2026-05-04T22:11:18Z</time></trkpt>
<trkpt lat="50.136588" lon="5.301298"><time>2026-05-04T22:21:18Z</time></trkpt>
<trkpt lat="50.137118" lon="5.303294"><time>2026-05-04T22:31:18Z</time></trkpt>
<trkpt lat="50.137331" lon="5.304709"><time>2026-05-04T22:41:18Z</time></trkpt>
</trkseg>
</trk>
<trk>
<name>xnsfr11</name>
<cmt>v</cmt>
<desc>Forrières Chemin n°11 </desc>
<link href="https://chemins.be/forrieres/chemin/11"/><trkseg>
<trkpt lat="50.137084" lon="5.275002"><time>2026-05-04T16:21:18Z</time></trkpt>
<trkpt lat="50.137846" lon="5.274783"><time>2026-05-04T16:31:18Z</time></trkpt>
<trkpt lat="50.138313" lon="5.274937"><time>2026-05-04T16:41:18Z</time></trkpt>
</trkseg></trk>
<trk>
<name>xnsfr11</name>
<cmt>s</cmt>
<desc>Forrières Chemin n°11 </desc>
<link href="https://chemins.be/forrieres/chemin/11"/><trkseg>
<trkpt lat="50.138313" lon="5.274937"><time>2026-05-04T16:41:18Z</time></trkpt>
<trkpt lat="50.138702" lon="5.275120"><time>2026-05-04T16:51:18Z</time></trkpt>
</trkseg></trk>
<trk>
<name>xnsfr11</name>
<cmt>v</cmt>
<desc>Forrières Chemin n°11 </desc>
<link href="https://chemins.be/forrieres/chemin/11"/><trkseg>
<trkpt lat="50.138702" lon="5.275120"><time>2026-05-04T16:51:18Z</time></trkpt>
<trkpt lat="50.140033" lon="5.274856"><time>2026-05-04T17:01:18Z</time></trkpt>
<trkpt lat="50.140413" lon="5.274613"><time>2026-05-04T17:11:18Z</time></trkpt>
</trkseg></trk>
<trk>
<name>xnsfr11</name>
<cmt>q</cmt>
<desc>Forrières Chemin n°11 </desc>
<link href="https://chemins.be/forrieres/chemin/11"/><trkseg>
<trkpt lat="50.140413" lon="5.274613"><time>2026-05-04T17:11:18Z</time></trkpt>
<trkpt lat="50.140814" lon="5.273981"><time>2026-05-04T17:21:18Z</time></trkpt>
<trkpt lat="50.141522" lon="5.273716"><time>2026-05-04T17:31:18Z</time></trkpt>
<trkpt lat="50.141942" lon="5.273777"><time>2026-05-04T17:41:18Z</time></trkpt>
<trkpt lat="50.142091" lon="5.274030"><time>2026-05-04T17:51:18Z</time></trkpt>
</trkseg>
</trk>
<trk>
<name>xnsfr12</name>
<cmt>r</cmt>
<desc>Forrières Chemin n°12 Ancienne Route de Marche</desc>
<link href="https://chemins.be/forrieres/chemin/12"/><trkseg>
<trkpt lat="50.136671" lon="5.279212"><time>2026-05-04T16:21:18Z</time></trkpt>
<trkpt lat="50.137058" lon="5.278204"><time>2026-05-04T16:31:18Z</time></trkpt>
<trkpt lat="50.137487" lon="5.277893"><time>2026-05-04T16:41:18Z</time></trkpt>
<trkpt lat="50.138209" lon="5.278229"><time>2026-05-04T16:51:18Z</time></trkpt>
<trkpt lat="50.139525" lon="5.277942"><time>2026-05-04T17:01:18Z</time></trkpt>
<trkpt lat="50.140347" lon="5.277464"><time>2026-05-04T17:11:18Z</time></trkpt>
</trkseg></trk>
<trk>
<name>xnsfr12</name>
<cmt>d</cmt>
<desc>Forrières Chemin n°12 Ancienne Route de Marche</desc>
<link href="https://chemins.be/forrieres/chemin/12"/><trkseg>
<trkpt lat="50.140347" lon="5.277464"><time>2026-05-04T17:11:18Z</time></trkpt>
<trkpt lat="50.140573" lon="5.277028"><time>2026-05-04T17:21:18Z</time></trkpt>
<trkpt lat="50.140779" lon="5.276688"><time>2026-05-04T17:31:18Z</time></trkpt>
<trkpt lat="50.140899" lon="5.276618"><time>2026-05-04T17:41:18Z</time></trkpt>
<trkpt lat="50.141359" lon="5.275832"><time>2026-05-04T17:51:18Z</time></trkpt>
<trkpt lat="50.142743" lon="5.274702"><time>2026-05-04T18:01:18Z</time></trkpt>
<trkpt lat="50.143043" lon="5.274613"><time>2026-05-04T18:11:18Z</time></trkpt>
</trkseg>
</trk>
<trk>
<name>xnsfr14</name>
<cmt>q</cmt>
<desc>Forrières Chemin n°14 </desc>
<link href="https://chemins.be/forrieres/chemin/14"/><trkseg>
<trkpt lat="50.134752" lon="5.277587"><time>2026-05-04T16:21:18Z</time></trkpt>
<trkpt lat="50.135271" lon="5.277227"><time>2026-05-04T16:31:18Z</time></trkpt>
<trkpt lat="50.135911" lon="5.274771"><time>2026-05-04T16:41:18Z</time></trkpt>
</trkseg></trk>
<trk>
<name>xnsfr14</name>
<cmt>v</cmt>
<desc>Forrières Chemin n°14 </desc>
<link href="https://chemins.be/forrieres/chemin/14"/><trkseg>
<trkpt lat="50.135911" lon="5.274771"><time>2026-05-04T16:41:18Z</time></trkpt>
<trkpt lat="50.135954" lon="5.273910"><time>2026-05-04T16:51:18Z</time></trkpt>
<trkpt lat="50.135951" lon="5.273815"><time>2026-05-04T17:01:18Z</time></trkpt>
<trkpt lat="50.135676" lon="5.272952"><time>2026-05-04T17:11:18Z</time></trkpt>
<trkpt lat="50.135558" lon="5.272145"><time>2026-05-04T17:21:18Z</time></trkpt>
<trkpt lat="50.135483" lon="5.269666"><time>2026-05-04T17:31:18Z</time></trkpt>
</trkseg>
</trk>
<trk>
<name>xnsfr17</name>
<cmt>v</cmt>
<desc>Forrières Chemin n°17 </desc>
<link href="https://chemins.be/forrieres/chemin/17"/><trkseg>
<trkpt lat="50.123458" lon="5.292534"><time>2026-05-04T16:21:18Z</time></trkpt>
<trkpt lat="50.124147" lon="5.295246"><time>2026-05-04T16:31:18Z</time></trkpt>
<trkpt lat="50.124497" lon="5.296372"><time>2026-05-04T16:41:18Z</time></trkpt>
<trkpt lat="50.125827" lon="5.297657"><time>2026-05-04T16:51:18Z</time></trkpt>
<trkpt lat="50.125982" lon="5.297310"><time>2026-05-04T17:01:18Z</time></trkpt>
</trkseg>
</trk>
<trk>
<name>xnsfr19</name>
<cmt>r</cmt>
<desc>Forrières Sentier n°19 </desc>
<link href="https://chemins.be/forrieres/sentier/19"/><trkseg>
<trkpt lat="50.135473" lon="5.267665"><time>2026-05-04T16:21:18Z</time></trkpt>
<trkpt lat="50.135056" lon="5.265080"><time>2026-05-04T16:31:18Z</time></trkpt>
<trkpt lat="50.131309" lon="5.260692"><time>2026-05-04T16:41:18Z</time></trkpt>
<trkpt lat="50.129231" lon="5.257548"><time>2026-05-04T16:51:18Z</time></trkpt>
<trkpt lat="50.128159" lon="5.253600"><time>2026-05-04T17:01:18Z</time></trkpt>
</trkseg>
</trk>
<trk>
<name>xnsfr19bis</name>
<cmt>q</cmt>
<desc>Forrières Sentier n°19bis </desc>
<link href="https://chemins.be/forrieres/sentier/19bis"/><trkseg>
<trkpt lat="50.137239" lon="5.275698"><time>2026-05-04T16:21:18Z</time></trkpt>
<trkpt lat="50.137011" lon="5.276237"><time>2026-05-04T16:31:18Z</time></trkpt>
<trkpt lat="50.136664" lon="5.277154"><time>2026-05-04T16:41:18Z</time></trkpt>
<trkpt lat="50.136405" lon="5.277558"><time>2026-05-04T16:51:18Z</time></trkpt>
<trkpt lat="50.136385" lon="5.277721"><time>2026-05-04T17:01:18Z</time></trkpt>
<trkpt lat="50.136619" lon="5.277844"><time>2026-05-04T17:11:18Z</time></trkpt>
</trkseg>
</trk>
<trk>
<name>xnsfr20</name>
<cmt>v</cmt>
<desc>Forrières Sentier n°20 </desc>
<link href="https://chemins.be/forrieres/sentier/20"/><trkseg>
<trkpt lat="50.130651" lon="5.265751"><time>2026-05-04T16:21:18Z</time></trkpt>
<trkpt lat="50.131300" lon="5.263640"><time>2026-05-04T16:31:18Z</time></trkpt>
<trkpt lat="50.131278" lon="5.261649"><time>2026-05-04T16:41:18Z</time></trkpt>
<trkpt lat="50.131366" lon="5.260876"><time>2026-05-04T16:51:18Z</time></trkpt>
</trkseg></trk>
<trk>
<name>xnsfr20</name>
<cmt>r</cmt>
<desc>Forrières Sentier n°20 </desc>
<link href="https://chemins.be/forrieres/sentier/20"/><trkseg>
<trkpt lat="50.131366" lon="5.260876"><time>2026-05-04T16:51:18Z</time></trkpt>
<trkpt lat="50.130178" lon="5.259091"><time>2026-05-04T17:01:18Z</time></trkpt>
<trkpt lat="50.129099" lon="5.257117"><time>2026-05-04T17:11:18Z</time></trkpt>
</trkseg></trk>
<trk>
<name>xnsfr20</name>
<cmt>q</cmt>
<desc>Forrières Sentier n°20 </desc>
<link href="https://chemins.be/forrieres/sentier/20"/><trkseg>
<trkpt lat="50.129099" lon="5.257117"><time>2026-05-04T17:11:18Z</time></trkpt>
<trkpt lat="50.130270" lon="5.254174"><time>2026-05-04T17:21:18Z</time></trkpt>
<trkpt lat="50.130356" lon="5.253316"><time>2026-05-04T17:31:18Z</time></trkpt>
<trkpt lat="50.129840" lon="5.250424"><time>2026-05-04T17:41:18Z</time></trkpt>
</trkseg>
</trk>
<trk>
<name>xnsfr21</name>
<cmt>r</cmt>
<desc>Forrières Sentier n°21 Rue de France</desc>
<link href="https://chemins.be/forrieres/sentier/21"/><trkseg>
<trkpt lat="50.130999" lon="5.272706"><time>2026-05-04T16:21:18Z</time></trkpt>
<trkpt lat="50.129619" lon="5.269609"><time>2026-05-04T16:31:18Z</time></trkpt>
<trkpt lat="50.129412" lon="5.268751"><time>2026-05-04T16:41:18Z</time></trkpt>
<trkpt lat="50.128665" lon="5.267714"><time>2026-05-04T16:51:18Z</time></trkpt>
<trkpt lat="50.126432" lon="5.263265"><time>2026-05-04T17:01:18Z</time></trkpt>
<trkpt lat="50.123722" lon="5.258608"><time>2026-05-04T17:11:18Z</time></trkpt>
</trkseg>
</trk>
<trk>
<name>xnsfr22</name>
<cmt>v</cmt>
<desc>Forrières Chemin n°22 </desc>
<link href="https://chemins.be/forrieres/chemin/22"/><trkseg>
<trkpt lat="50.128370" lon="5.278836"><time>2026-05-04T16:21:18Z</time></trkpt>
<trkpt lat="50.127512" lon="5.278836"><time>2026-05-04T16:31:18Z</time></trkpt>
<trkpt lat="50.126444" lon="5.279844"><time>2026-05-04T16:41:18Z</time></trkpt>
</trkseg>
</trk>
<trk>
<name>xnsfr23</name>
<cmt>v</cmt>
<desc>Forrières Sentier n°23 Rue Orzée / Rue de la Colinne / Rue de la Ramée / Rue de Lesterny</desc>
<link href="https://chemins.be/forrieres/sentier/23"/><trkseg>
<trkpt lat="50.133489" lon="5.282321"><time>2026-05-04T16:21:18Z</time></trkpt>
<trkpt lat="50.133017" lon="5.282457"><time>2026-05-04T16:31:18Z</time></trkpt>
<trkpt lat="50.131597" lon="5.282868"><time>2026-05-04T16:41:18Z</time></trkpt>
<trkpt lat="50.131630" lon="5.283059"><time>2026-05-04T16:51:18Z</time></trkpt>
<trkpt lat="50.131269" lon="5.283222"><time>2026-05-04T17:01:18Z</time></trkpt>
</trkseg></trk>
<trk>
<name>xnsfr23</name>
<cmt>r</cmt>
<desc>Forrières Sentier n°23 Rue Orzée / Rue de la Colinne / Rue de la Ramée / Rue de Lesterny</desc>
<link href="https://chemins.be/forrieres/sentier/23"/><trkseg>
<trkpt lat="50.131269" lon="5.283222"><time>2026-05-04T17:01:18Z</time></trkpt>
<trkpt lat="50.131109" lon="5.282586"><time>2026-05-04T17:11:18Z</time></trkpt>
<trkpt lat="50.130136" lon="5.281996"><time>2026-05-04T17:21:18Z</time></trkpt>
<trkpt lat="50.129400" lon="5.281393"><time>2026-05-04T17:31:18Z</time></trkpt>
<trkpt lat="50.129305" lon="5.281790"><time>2026-05-04T17:41:18Z</time></trkpt>
</trkseg></trk>
<trk>
<name>xnsfr23</name>
<cmt>v</cmt>
<desc>Forrières Sentier n°23 Rue Orzée / Rue de la Colinne / Rue de la Ramée / Rue de Lesterny</desc>
<link href="https://chemins.be/forrieres/sentier/23"/><trkseg>
<trkpt lat="50.129305" lon="5.281790"><time>2026-05-04T17:41:18Z</time></trkpt>
<trkpt lat="50.128984" lon="5.281703"><time>2026-05-04T17:51:18Z</time></trkpt>
<trkpt lat="50.128725" lon="5.281418"><time>2026-05-04T18:01:18Z</time></trkpt>
<trkpt lat="50.128281" lon="5.280739"><time>2026-05-04T18:11:18Z</time></trkpt>
<trkpt lat="50.128114" lon="5.280316"><time>2026-05-04T18:21:18Z</time></trkpt>
<trkpt lat="50.128005" lon="5.280370"><time>2026-05-04T18:31:18Z</time></trkpt>
<trkpt lat="50.127908" lon="5.280200"><time>2026-05-04T18:41:18Z</time></trkpt>
<trkpt lat="50.127725" lon="5.280532"><time>2026-05-04T18:51:18Z</time></trkpt>
<trkpt lat="50.127199" lon="5.281207"><time>2026-05-04T19:01:18Z</time></trkpt>
<trkpt lat="50.127086" lon="5.281066"><time>2026-05-04T19:11:18Z</time></trkpt>
<trkpt lat="50.126322" lon="5.282053"><time>2026-05-04T19:21:18Z</time></trkpt>
<trkpt lat="50.125538" lon="5.281066"><time>2026-05-04T19:31:18Z</time></trkpt>
<trkpt lat="50.124679" lon="5.282135"><time>2026-05-04T19:41:18Z</time></trkpt>
<trkpt lat="50.124525" lon="5.282229"><time>2026-05-04T19:51:18Z</time></trkpt>
<trkpt lat="50.124387" lon="5.282199"><time>2026-05-04T20:01:18Z</time></trkpt>
</trkseg></trk>
<trk>
<name>xnsfr23</name>
<cmt>q</cmt>
<desc>Forrières Sentier n°23 Rue Orzée / Rue de la Colinne / Rue de la Ramée / Rue de Lesterny</desc>
<link href="https://chemins.be/forrieres/sentier/23"/><trkseg>
<trkpt lat="50.124387" lon="5.282199"><time>2026-05-04T20:01:18Z</time></trkpt>
<trkpt lat="50.123633" lon="5.282074"><time>2026-05-04T20:11:18Z</time></trkpt>
<trkpt lat="50.123172" lon="5.281495"><time>2026-05-04T20:21:18Z</time></trkpt>
<trkpt lat="50.121947" lon="5.281355"><time>2026-05-04T20:31:18Z</time></trkpt>
</trkseg></trk>
<trk>
<name>xnsfr23</name>
<cmt>r</cmt>
<desc>Forrières Sentier n°23 Rue Orzée / Rue de la Colinne / Rue de la Ramée / Rue de Lesterny</desc>
<link href="https://chemins.be/forrieres/sentier/23"/><trkseg>
<trkpt lat="50.121947" lon="5.281355"><time>2026-05-04T20:31:18Z</time></trkpt>
<trkpt lat="50.119767" lon="5.279993"><time>2026-05-04T20:41:18Z</time></trkpt>
</trkseg>
</trk>
<trk>
<name>xnsfr24</name>
<cmt>r</cmt>
<desc>Forrières Sentier n°24 </desc>
<link href="https://chemins.be/forrieres/sentier/24"/><trkseg>
<trkpt lat="50.124348" lon="5.285379"><time>2026-05-04T16:21:18Z</time></trkpt>
<trkpt lat="50.123392" lon="5.285754"><time>2026-05-04T16:31:18Z</time></trkpt>
<trkpt lat="50.122608" lon="5.285228"><time>2026-05-04T16:41:18Z</time></trkpt>
<trkpt lat="50.121562" lon="5.286087"><time>2026-05-04T16:51:18Z</time></trkpt>
<trkpt lat="50.121395" lon="5.286580"><time>2026-05-04T17:01:18Z</time></trkpt>
</trkseg></trk>
<trk>
<name>xnsfr24</name>
<cmt>q</cmt>
<desc>Forrières Sentier n°24 </desc>
<link href="https://chemins.be/forrieres/sentier/24"/><trkseg>
<trkpt lat="50.121395" lon="5.286580"><time>2026-05-04T17:01:18Z</time></trkpt>
<trkpt lat="50.119279" lon="5.287979"><time>2026-05-04T17:11:18Z</time></trkpt>
</trkseg></trk>
<trk>
<name>xnsfr24</name>
<cmt>d</cmt>
<desc>Forrières Sentier n°24 </desc>
<link href="https://chemins.be/forrieres/sentier/24"/><trkseg>
<trkpt lat="50.119279" lon="5.287979"><time>2026-05-04T17:11:18Z</time></trkpt>
<trkpt lat="50.118225" lon="5.288675"><time>2026-05-04T17:21:18Z</time></trkpt>
</trkseg>
</trk>
<trk>
<name>xnsfr25</name>
<cmt>r</cmt>
<desc>Forrières Sentier n°25 Rue Mélard</desc>
<link href="https://chemins.be/forrieres/sentier/25"/><trkseg>
<trkpt lat="50.135342" lon="5.284580"><time>2026-05-04T16:21:18Z</time></trkpt>
<trkpt lat="50.135535" lon="5.285276"><time>2026-05-04T16:31:18Z</time></trkpt>
</trkseg></trk>
<trk>
<name>xnsfr25</name>
<cmt>v</cmt>
<desc>Forrières Sentier n°25 Rue Mélard</desc>
<link href="https://chemins.be/forrieres/sentier/25"/><trkseg>
<trkpt lat="50.135535" lon="5.285276"><time>2026-05-04T16:31:18Z</time></trkpt>
<trkpt lat="50.135999" lon="5.285875"><time>2026-05-04T16:41:18Z</time></trkpt>
</trkseg></trk>
<trk>
<name>xnsfr25</name>
<cmt>q</cmt>
<desc>Forrières Sentier n°25 Rue Mélard</desc>
<link href="https://chemins.be/forrieres/sentier/25"/><trkseg>
<trkpt lat="50.135999" lon="5.285875"><time>2026-05-04T16:41:18Z</time></trkpt>
<trkpt lat="50.136478" lon="5.285541"><time>2026-05-04T16:51:18Z</time></trkpt>
<trkpt lat="50.137069" lon="5.285648"><time>2026-05-04T17:01:18Z</time></trkpt>
<trkpt lat="50.138389" lon="5.287167"><time>2026-05-04T17:11:18Z</time></trkpt>
</trkseg>
</trk>
<trk>
<name>xnsfr26</name>
<cmt>b</cmt>
<desc>Forrières Sentier n°26 </desc>
<link href="https://chemins.be/forrieres/sentier/26"/><trkseg>
<trkpt lat="50.133732" lon="5.284794"><time>2026-05-04T16:21:18Z</time></trkpt>
<trkpt lat="50.134508" lon="5.284428"><time>2026-05-04T16:31:18Z</time></trkpt>
<trkpt lat="50.135295" lon="5.284056"><time>2026-05-04T16:41:18Z</time></trkpt>
</trkseg>
</trk>
<trk>
<name>xnsfr27</name>
<cmt>d</cmt>
<desc>Forrières Sentier n°27 </desc>
<link href="https://chemins.be/forrieres/sentier/27"/><trkseg>
<trkpt lat="50.137835" lon="5.278051"><time>2026-05-04T16:21:18Z</time></trkpt>
<trkpt lat="50.139251" lon="5.277235"><time>2026-05-04T16:31:18Z</time></trkpt>
<trkpt lat="50.140551" lon="5.275959"><time>2026-05-04T16:41:18Z</time></trkpt>
<trkpt lat="50.141311" lon="5.275497"><time>2026-05-04T16:51:18Z</time></trkpt>
</trkseg></trk>
<trk>
<name>xnsfr27</name>
<cmt>v</cmt>
<desc>Forrières Sentier n°27 </desc>
<link href="https://chemins.be/forrieres/sentier/27"/><trkseg>
<trkpt lat="50.141311" lon="5.275497"><time>2026-05-04T16:51:18Z</time></trkpt>
<trkpt lat="50.141819" lon="5.274725"><time>2026-05-04T17:01:18Z</time></trkpt>
<trkpt lat="50.141917" lon="5.274398"><time>2026-05-04T17:11:18Z</time></trkpt>
</trkseg>
</trk>
<trk>
<name>xnsfr28</name>
<cmt>q</cmt>
<desc>Forrières Sentier n°28 </desc>
<link href="https://chemins.be/forrieres/sentier/28"/><trkseg>
<trkpt lat="50.140369" lon="5.277579"><time>2026-05-04T16:21:18Z</time></trkpt>
<trkpt lat="50.140926" lon="5.277911"><time>2026-05-04T16:31:18Z</time></trkpt>
<trkpt lat="50.141764" lon="5.277987"><time>2026-05-04T16:41:18Z</time></trkpt>
<trkpt lat="50.142301" lon="5.277697"><time>2026-05-04T16:51:18Z</time></trkpt>
<trkpt lat="50.143432" lon="5.278480"><time>2026-05-04T17:01:18Z</time></trkpt>
<trkpt lat="50.143896" lon="5.278904"><time>2026-05-04T17:11:18Z</time></trkpt>
<trkpt lat="50.144040" lon="5.278754"><time>2026-05-04T17:21:18Z</time></trkpt>
<trkpt lat="50.144157" lon="5.278292"><time>2026-05-04T17:31:18Z</time></trkpt>
</trkseg>
</trk>
<trk>
<name>xnsfr29</name>
<cmt>v</cmt>
<desc>Forrières Sentier n°29 </desc>
<link href="https://chemins.be/forrieres/sentier/29"/><trkseg>
<trkpt lat="50.132795" lon="5.288580"><time>2026-05-04T16:21:18Z</time></trkpt>
<trkpt lat="50.132476" lon="5.289421"><time>2026-05-04T16:31:18Z</time></trkpt>
<trkpt lat="50.130627" lon="5.290417"><time>2026-05-04T16:41:18Z</time></trkpt>
</trkseg>
</trk>
<trk>
<name>xnsfr30</name>
<cmt>v</cmt>
<desc>Forrières Sentier n°30 </desc>
<link href="https://chemins.be/forrieres/sentier/30"/><trkseg>
<trkpt lat="50.116469" lon="5.308437"><time>2026-05-04T16:21:18Z</time></trkpt>
<trkpt lat="50.116691" lon="5.307046"><time>2026-05-04T16:31:18Z</time></trkpt>
<trkpt lat="50.117576" lon="5.304306"><time>2026-05-04T16:41:18Z</time></trkpt>
<trkpt lat="50.119975" lon="5.297183"><time>2026-05-04T16:51:18Z</time></trkpt>
<trkpt lat="50.120295" lon="5.295432"><time>2026-05-04T17:01:18Z</time></trkpt>
</trkseg></trk>
<trk>
<name>xnsfr30</name>
<cmt>r</cmt>
<desc>Forrières Sentier n°30 </desc>
<link href="https://chemins.be/forrieres/sentier/30"/><trkseg>
<trkpt lat="50.120295" lon="5.295432"><time>2026-05-04T17:01:18Z</time></trkpt>
<trkpt lat="50.124213" lon="5.295363"><time>2026-05-04T17:11:18Z</time></trkpt>
<trkpt lat="50.125009" lon="5.295109"><time>2026-05-04T17:21:18Z</time></trkpt>
<trkpt lat="50.125857" lon="5.293821"><time>2026-05-04T17:31:18Z</time></trkpt>
<trkpt lat="50.126238" lon="5.291998"><time>2026-05-04T17:41:18Z</time></trkpt>
<trkpt lat="50.125732" lon="5.286780"><time>2026-05-04T17:51:18Z</time></trkpt>
<trkpt lat="50.126227" lon="5.285475"><time>2026-05-04T18:01:18Z</time></trkpt>
</trkseg></trk>
<trk>
<name>xnsfr30</name>
<cmt>q</cmt>
<desc>Forrières Sentier n°30 </desc>
<link href="https://chemins.be/forrieres/sentier/30"/><trkseg>
<trkpt lat="50.126227" lon="5.285475"><time>2026-05-04T18:01:18Z</time></trkpt>
<trkpt lat="50.126733" lon="5.283913"><time>2026-05-04T18:11:18Z</time></trkpt>
<trkpt lat="50.127955" lon="5.282643"><time>2026-05-04T18:21:18Z</time></trkpt>
<trkpt lat="50.129297" lon="5.281750"><time>2026-05-04T18:31:18Z</time></trkpt>
</trkseg>
</trk>
<trk>
<name>xnsfr31</name>
<cmt>v</cmt>
<desc>Forrières Sentier n°31 </desc>
<link href="https://chemins.be/forrieres/sentier/31"/><trkseg>
<trkpt lat="50.127739" lon="5.311303"><time>2026-05-04T16:21:18Z</time></trkpt>
<trkpt lat="50.126055" lon="5.310514"><time>2026-05-04T16:31:18Z</time></trkpt>
<trkpt lat="50.124364" lon="5.308411"><time>2026-05-04T16:41:18Z</time></trkpt>
<trkpt lat="50.124559" lon="5.307590"><time>2026-05-04T16:51:18Z</time></trkpt>
<trkpt lat="50.124448" lon="5.306902"><time>2026-05-04T17:01:18Z</time></trkpt>
<trkpt lat="50.122311" lon="5.306497"><time>2026-05-04T17:11:18Z</time></trkpt>
</trkseg></trk>
<trk>
<name>xnsfr31</name>
<cmt>q</cmt>
<desc>Forrières Sentier n°31 </desc>
<link href="https://chemins.be/forrieres/sentier/31"/><trkseg>
<trkpt lat="50.122311" lon="5.306497"><time>2026-05-04T17:11:18Z</time></trkpt>
<trkpt lat="50.120863" lon="5.306650"><time>2026-05-04T17:21:18Z</time></trkpt>
<trkpt lat="50.120193" lon="5.306077"><time>2026-05-04T17:31:18Z</time></trkpt>
<trkpt lat="50.118480" lon="5.305470"><time>2026-05-04T17:41:18Z</time></trkpt>
<trkpt lat="50.117741" lon="5.304575"><time>2026-05-04T17:51:18Z</time></trkpt>
<trkpt lat="50.117573" lon="5.304320"><time>2026-05-04T18:01:18Z</time></trkpt>
</trkseg>
</trk>
<trk>
<name>xnsfr32</name>
<cmt>v</cmt>
<desc>Forrières Sentier n°32 </desc>
<link href="https://chemins.be/forrieres/sentier/32"/><trkseg>
<trkpt lat="50.127935" lon="5.310017"><time>2026-05-04T16:21:18Z</time></trkpt>
<trkpt lat="50.127515" lon="5.309814"><time>2026-05-04T16:31:18Z</time></trkpt>
<trkpt lat="50.126697" lon="5.308011"><time>2026-05-04T16:41:18Z</time></trkpt>
<trkpt lat="50.126084" lon="5.307475"><time>2026-05-04T16:51:18Z</time></trkpt>
<trkpt lat="50.125438" lon="5.305565"><time>2026-05-04T17:01:18Z</time></trkpt>
<trkpt lat="50.125431" lon="5.304256"><time>2026-05-04T17:11:18Z</time></trkpt>
</trkseg>
</trk>
<trk>
<name>xnsfr4</name>
<cmt>q</cmt>
<desc>Forrières Chemin n°4 </desc>
<link href="https://chemins.be/forrieres/chemin/4"/><trkseg>
<trkpt lat="50.124433" lon="5.285286"><time>2026-05-04T16:21:18Z</time></trkpt>
<trkpt lat="50.123531" lon="5.286385"><time>2026-05-04T16:31:18Z</time></trkpt>
<trkpt lat="50.123387" lon="5.289217"><time>2026-05-04T16:41:18Z</time></trkpt>
</trkseg></trk>
<trk>
<name>xnsfr4</name>
<cmt>v</cmt>
<desc>Forrières Chemin n°4 </desc>
<link href="https://chemins.be/forrieres/chemin/4"/><trkseg>
<trkpt lat="50.123387" lon="5.289217"><time>2026-05-04T16:41:18Z</time></trkpt>
<trkpt lat="50.123299" lon="5.290007"><time>2026-05-04T16:51:18Z</time></trkpt>
<trkpt lat="50.122804" lon="5.291930"><time>2026-05-04T17:01:18Z</time></trkpt>
<trkpt lat="50.122045" lon="5.292771"><time>2026-05-04T17:11:18Z</time></trkpt>
<trkpt lat="50.122409" lon="5.293901"><time>2026-05-04T17:21:18Z</time></trkpt>
</trkseg></trk>
<trk>
<name>xnsfr4</name>
<cmt>d</cmt>
<desc>Forrières Chemin n°4 </desc>
<link href="https://chemins.be/forrieres/chemin/4"/><trkseg>
<trkpt lat="50.122409" lon="5.293901"><time>2026-05-04T17:21:18Z</time></trkpt>
<trkpt lat="50.121681" lon="5.294642"><time>2026-05-04T17:31:18Z</time></trkpt>
<trkpt lat="50.121047" lon="5.294219"><time>2026-05-04T17:41:18Z</time></trkpt>
<trkpt lat="50.120800" lon="5.293447"><time>2026-05-04T17:51:18Z</time></trkpt>
</trkseg></trk>
<trk>
<name>xnsfr4</name>
<cmt>v</cmt>
<desc>Forrières Chemin n°4 </desc>
<link href="https://chemins.be/forrieres/chemin/4"/><trkseg>
<trkpt lat="50.120800" lon="5.293447"><time>2026-05-04T17:51:18Z</time></trkpt>
<trkpt lat="50.120095" lon="5.294073"><time>2026-05-04T18:01:18Z</time></trkpt>
<trkpt lat="50.120317" lon="5.295174"><time>2026-05-04T18:11:18Z</time></trkpt>
</trkseg></trk>
<trk>
<name>xnsfr4</name>
<cmt>q</cmt>
<desc>Forrières Chemin n°4 </desc>
<link href="https://chemins.be/forrieres/chemin/4"/><trkseg>
<trkpt lat="50.120317" lon="5.295174"><time>2026-05-04T18:11:18Z</time></trkpt>
<trkpt lat="50.118688" lon="5.295449"><time>2026-05-04T18:21:18Z</time></trkpt>
<trkpt lat="50.118203" lon="5.294659"><time>2026-05-04T18:31:18Z</time></trkpt>
</trkseg></trk>
<trk>
<name>xnsfr4</name>
<cmt>s</cmt>
<desc>Forrières Chemin n°4 </desc>
<link href="https://chemins.be/forrieres/chemin/4"/><trkseg>
<trkpt lat="50.118203" lon="5.294659"><time>2026-05-04T18:31:18Z</time></trkpt>
<trkpt lat="50.117993" lon="5.294245"><time>2026-05-04T18:41:18Z</time></trkpt>
</trkseg></trk>
<trk>
<name>xnsfr4</name>
<cmt>v</cmt>
<desc>Forrières Chemin n°4 </desc>
<link href="https://chemins.be/forrieres/chemin/4"/><trkseg>
<trkpt lat="50.117993" lon="5.294245"><time>2026-05-04T18:41:18Z</time></trkpt>
<trkpt lat="50.116322" lon="5.294549"><time>2026-05-04T18:51:18Z</time></trkpt>
</trkseg>
</trk>
<trk>
<name>xnsfr40</name>
<cmt>v</cmt>
<desc>Forrières Sentier n°40 </desc>
<link href="https://chemins.be/forrieres/sentier/40"/><trkseg>
<trkpt lat="50.131763" lon="5.299003"><time>2026-05-04T16:21:18Z</time></trkpt>
<trkpt lat="50.132022" lon="5.299862"><time>2026-05-04T16:31:18Z</time></trkpt>
<trkpt lat="50.132412" lon="5.300514"><time>2026-05-04T16:41:18Z</time></trkpt>
<trkpt lat="50.133156" lon="5.303704"><time>2026-05-04T16:51:18Z</time></trkpt>
<trkpt lat="50.133018" lon="5.305689"><time>2026-05-04T17:01:18Z</time></trkpt>
<trkpt lat="50.133023" lon="5.309852"><time>2026-05-04T17:11:18Z</time></trkpt>
<trkpt lat="50.132517" lon="5.312367"><time>2026-05-04T17:21:18Z</time></trkpt>
</trkseg>
</trk>
<trk>
<name>xnsfr5</name>
<cmt>v</cmt>
<desc>Forrières Chemin n°5 </desc>
<link href="https://chemins.be/forrieres/chemin/5"/><trkseg>
<trkpt lat="50.125709" lon="5.316494"><time>2026-05-04T16:21:18Z</time></trkpt>
<trkpt lat="50.126216" lon="5.315231"><time>2026-05-04T16:31:18Z</time></trkpt>
<trkpt lat="50.127793" lon="5.311304"><time>2026-05-04T16:41:18Z</time></trkpt>
<trkpt lat="50.127893" lon="5.310082"><time>2026-05-04T16:51:18Z</time></trkpt>
<trkpt lat="50.129089" lon="5.308980"><time>2026-05-04T17:01:18Z</time></trkpt>
<trkpt lat="50.130329" lon="5.305759"><time>2026-05-04T17:11:18Z</time></trkpt>
<trkpt lat="50.131095" lon="5.304431"><time>2026-05-04T17:21:18Z</time></trkpt>
<trkpt lat="50.131792" lon="5.303760"><time>2026-05-04T17:31:18Z</time></trkpt>
<trkpt lat="50.131924" lon="5.301972"><time>2026-05-04T17:41:18Z</time></trkpt>
<trkpt lat="50.131575" lon="5.300622"><time>2026-05-04T17:51:18Z</time></trkpt>
<trkpt lat="50.131320" lon="5.299932"><time>2026-05-04T18:01:18Z</time></trkpt>
<trkpt lat="50.131414" lon="5.299063"><time>2026-05-04T18:11:18Z</time></trkpt>
<trkpt lat="50.131868" lon="5.298809"><time>2026-05-04T18:21:18Z</time></trkpt>
</trkseg>
</trk>
<trk>
<name>xnsfr6</name>
<cmt>v</cmt>
<desc>Forrières Chemin n°6 </desc>
<link href="https://chemins.be/forrieres/chemin/6"/><trkseg>
<trkpt lat="50.125694" lon="5.316574"><time>2026-05-04T16:21:18Z</time></trkpt>
<trkpt lat="50.126838" lon="5.316688"><time>2026-05-04T16:31:18Z</time></trkpt>
<trkpt lat="50.127631" lon="5.316470"><time>2026-05-04T16:41:18Z</time></trkpt>
</trkseg>
</trk>
<trk>
<name>xnsfr8</name>
<cmt>v</cmt>
<desc>Forrières Chemin n°8 </desc>
<link href="https://chemins.be/forrieres/chemin/8"/><trkseg>
<trkpt lat="50.127269" lon="5.255581"><time>2026-05-04T16:21:18Z</time></trkpt>
<trkpt lat="50.123747" lon="5.258313"><time>2026-05-04T16:31:18Z</time></trkpt>
</trkseg></trk>
<trk>
<name>xnsfr8</name>
<cmt>q</cmt>
<desc>Forrières Chemin n°8 </desc>
<link href="https://chemins.be/forrieres/chemin/8"/><trkseg>
<trkpt lat="50.123747" lon="5.258313"><time>2026-05-04T16:31:18Z</time></trkpt>
<trkpt lat="50.121894" lon="5.260617"><time>2026-05-04T16:41:18Z</time></trkpt>
</trkseg>
</trk>
<trk>
<name>xnsfri1</name>
<cmt>v</cmt>
<desc>Forrières Sentier n°i1 </desc>
<link href="https://chemins.be/forrieres/sentier/i1"/><trkseg>
<trkpt lat="50.124364" lon="5.308397"><time>2026-05-04T16:21:18Z</time></trkpt>
<trkpt lat="50.122400" lon="5.308918"><time>2026-05-04T16:31:18Z</time></trkpt>
<trkpt lat="50.121542" lon="5.309334"><time>2026-05-04T16:41:18Z</time></trkpt>
<trkpt lat="50.119786" lon="5.309691"><time>2026-05-04T16:51:18Z</time></trkpt>
</trkseg>
</trk>
<trk>
<name>xnsfri10</name>
<cmt>v</cmt>
<desc>Forrières Chemin n°i10 </desc>
<link href="https://chemins.be/forrieres/chemin/i10"/><trkseg>
<trkpt lat="50.125135" lon="5.283261"><time>2026-05-04T16:21:18Z</time></trkpt>
<trkpt lat="50.125372" lon="5.283526"><time>2026-05-04T16:31:18Z</time></trkpt>
<trkpt lat="50.125504" lon="5.283704"><time>2026-05-04T16:41:18Z</time></trkpt>
<trkpt lat="50.125546" lon="5.283780"><time>2026-05-04T16:51:18Z</time></trkpt>
<trkpt lat="50.125474" lon="5.284053"><time>2026-05-04T17:01:18Z</time></trkpt>
</trkseg></trk>
<trk>
<name>xnsfri10</name>
<cmt>q</cmt>
<desc>Forrières Chemin n°i10 </desc>
<link href="https://chemins.be/forrieres/chemin/i10"/><trkseg>
<trkpt lat="50.125474" lon="5.284053"><time>2026-05-04T17:01:18Z</time></trkpt>
<trkpt lat="50.125436" lon="5.284042"><time>2026-05-04T17:11:18Z</time></trkpt>
<trkpt lat="50.124530" lon="5.285678"><time>2026-05-04T17:21:18Z</time></trkpt>
<trkpt lat="50.123839" lon="5.287384"><time>2026-05-04T17:31:18Z</time></trkpt>
<trkpt lat="50.123397" lon="5.289290"><time>2026-05-04T17:41:18Z</time></trkpt>
</trkseg>
</trk>
<trk>
<name>xnsfri11</name>
<cmt>v</cmt>
<desc>Forrières Chemin n°i11 </desc>
<link href="https://chemins.be/forrieres/chemin/i11"/><trkseg>
<trkpt lat="50.140363" lon="5.277338"><time>2026-05-04T16:21:18Z</time></trkpt>
<trkpt lat="50.140799" lon="5.276169"><time>2026-05-04T16:31:18Z</time></trkpt>
<trkpt lat="50.141301" lon="5.275504"><time>2026-05-04T16:41:18Z</time></trkpt>
</trkseg>
</trk>
<trk>
<name>xnsfri2</name>
<cmt>v</cmt>
<desc>Forrières Chemin n°i2 </desc>
<link href="https://chemins.be/forrieres/chemin/i2"/><trkseg>
<trkpt lat="50.121145" lon="5.302852"><time>2026-05-04T16:21:18Z</time></trkpt>
<trkpt lat="50.119806" lon="5.303874"><time>2026-05-04T16:31:18Z</time></trkpt>
<trkpt lat="50.118489" lon="5.305527"><time>2026-05-04T16:41:18Z</time></trkpt>
<trkpt lat="50.118381" lon="5.307804"><time>2026-05-04T16:51:18Z</time></trkpt>
<trkpt lat="50.119163" lon="5.308826"><time>2026-05-04T17:01:18Z</time></trkpt>
<trkpt lat="50.119694" lon="5.309955"><time>2026-05-04T17:11:18Z</time></trkpt>
<trkpt lat="50.120531" lon="5.310881"><time>2026-05-04T17:21:18Z</time></trkpt>
<trkpt lat="50.121372" lon="5.311401"><time>2026-05-04T17:31:18Z</time></trkpt>
<trkpt lat="50.121948" lon="5.312531"><time>2026-05-04T17:41:18Z</time></trkpt>
<trkpt lat="50.124327" lon="5.312914"><time>2026-05-04T17:51:18Z</time></trkpt>
</trkseg>
</trk>
<trk>
<name>xnsfri3</name>
<cmt>v</cmt>
<desc>Forrières Chemin n°i3 </desc>
<link href="https://chemins.be/forrieres/chemin/i3"/><trkseg>
<trkpt lat="50.120637" lon="5.295612"><time>2026-05-04T16:21:18Z</time></trkpt>
<trkpt lat="50.120671" lon="5.297011"><time>2026-05-04T16:31:18Z</time></trkpt>
<trkpt lat="50.120388" lon="5.298586"><time>2026-05-04T16:41:18Z</time></trkpt>
<trkpt lat="50.120269" lon="5.300066"><time>2026-05-04T16:51:18Z</time></trkpt>
<trkpt lat="50.120385" lon="5.301187"><time>2026-05-04T17:01:18Z</time></trkpt>
<trkpt lat="50.121253" lon="5.302882"><time>2026-05-04T17:11:18Z</time></trkpt>
<trkpt lat="50.122004" lon="5.304547"><time>2026-05-04T17:21:18Z</time></trkpt>
<trkpt lat="50.122063" lon="5.306086"><time>2026-05-04T17:31:18Z</time></trkpt>
<trkpt lat="50.122312" lon="5.306469"><time>2026-05-04T17:41:18Z</time></trkpt>
</trkseg>
</trk>
<trk>
<name>xnsfri4</name>
<cmt>v</cmt>
<desc>Forrières Chemin n°i4 </desc>
<link href="https://chemins.be/forrieres/chemin/i4"/><trkseg>
<trkpt lat="50.137278" lon="5.275656"><time>2026-05-04T16:21:18Z</time></trkpt>
<trkpt lat="50.138669" lon="5.275120"><time>2026-05-04T16:31:18Z</time></trkpt>
</trkseg>
</trk>
<trk>
<name>xnsfri5</name>
<cmt>r</cmt>
<desc>Forrières Chemin n°i5 Rue Mélard</desc>
<link href="https://chemins.be/forrieres/chemin/i5"/><trkseg>
<trkpt lat="50.133713" lon="5.284966"><time>2026-05-04T16:21:18Z</time></trkpt>
<trkpt lat="50.135366" lon="5.284536"><time>2026-05-04T16:31:18Z</time></trkpt>
</trkseg>
</trk>
<trk>
<name>xnsfri6</name>
<cmt>r</cmt>
<desc>Forrières Chemin n°i6 Rue Grand Pré</desc>
<link href="https://chemins.be/forrieres/chemin/i6"/><trkseg>
<trkpt lat="50.134010" lon="5.287592"><time>2026-05-04T16:21:18Z</time></trkpt>
<trkpt lat="50.134737" lon="5.286845"><time>2026-05-04T16:31:18Z</time></trkpt>
</trkseg></trk>
<trk>
<name>xnsfri6</name>
<cmt>v</cmt>
<desc>Forrières Chemin n°i6 Rue Grand Pré</desc>
<link href="https://chemins.be/forrieres/chemin/i6"/><trkseg>
<trkpt lat="50.134737" lon="5.286845"><time>2026-05-04T16:31:18Z</time></trkpt>
<trkpt lat="50.135952" lon="5.285837"><time>2026-05-04T16:41:18Z</time></trkpt>
</trkseg>
</trk>
<trk>
<name>xnsfri7</name>
<cmt>v</cmt>
<desc>Forrières Chemin n°i7 </desc>
<link href="https://chemins.be/forrieres/chemin/i7"/><trkseg>
<trkpt lat="50.141838" lon="5.292398"><time>2026-05-04T16:21:18Z</time></trkpt>
<trkpt lat="50.142100" lon="5.292414"><time>2026-05-04T16:31:18Z</time></trkpt>
<trkpt lat="50.142172" lon="5.292119"><time>2026-05-04T16:41:18Z</time></trkpt>
<trkpt lat="50.141935" lon="5.291416"><time>2026-05-04T16:51:18Z</time></trkpt>
<trkpt lat="50.141787" lon="5.290247"><time>2026-05-04T17:01:18Z</time></trkpt>
<trkpt lat="50.140590" lon="5.287769"><time>2026-05-04T17:11:18Z</time></trkpt>
</trkseg>
</trk>
<trk>
<name>xnsfri8</name>
<cmt>v</cmt>
<desc>Forrières Chemin n°i8 </desc>
<link href="https://chemins.be/forrieres/chemin/i8"/><trkseg>
<trkpt lat="50.123193" lon="5.271045"><time>2026-05-04T16:21:18Z</time></trkpt>
<trkpt lat="50.122192" lon="5.272332"><time>2026-05-04T16:31:18Z</time></trkpt>
<trkpt lat="50.121598" lon="5.274135"><time>2026-05-04T16:41:18Z</time></trkpt>
</trkseg>
</trk>
<trk>
<name>xnsfri9</name>
<cmt>v</cmt>
<desc>Forrières Sentier n°i9 </desc>
<link href="https://chemins.be/forrieres/sentier/i9"/><trkseg>
<trkpt lat="50.131352" lon="5.283785"><time>2026-05-04T16:21:18Z</time></trkpt>
<trkpt lat="50.130935" lon="5.284243"><time>2026-05-04T16:31:18Z</time></trkpt>
<trkpt lat="50.130325" lon="5.284865"><time>2026-05-04T16:41:18Z</time></trkpt>
</trkseg>
</trk>
</gpx>